sensor_id;sensor_type;location;lat;lon;timestamp;pressure;altitude;pressure_sealevel;temperature;humidity
45403;BME280;47427;51.976;5.326;2023-02-28T00:02:36;103133.47;;;-0.57;100.00
45403;BME280;47427;51.976;5.326;2023-02-28T00:06:06;103134.38;;;-0.57;100.00
45403;BME280;47427;51.976;5.326;2023-02-28T00:09:28;103132.69;;;-0.56;100.00
45403;BME280;47427;51.976;5.326;2023-02-28T00:13:10;103114.66;;;-0.40;100.00
45403;BME280;47427;51.976;5.326;2023-02-28T00:16:32;103122.97;;;-0.18;100.00
45403;BME280;47427;51.976;5.326;2023-02-28T00:20:02;103117.03;;;-0.02;100.00
45403;BME280;47427;51.976;5.326;2023-02-28T00:23:42;103121.84;;;0.20;100.00
45403;BME280;47427;51.976;5.326;2023-02-28T00:27:15;103119.22;;;0.36;100.00
45403;BME280;47427;51.976;5.326;2023-02-28T00:30:36;103112.75;;;0.48;100.00
45403;BME280;47427;51.976;5.326;2023-02-28T00:34:06;103122.97;;;0.64;100.00
45403;BME280;47427;51.976;5.326;2023-02-28T00:37:44;103113.44;;;0.72;100.00
45403;BME280;47427;51.976;5.326;2023-02-28T00:41:07;103124.06;;;0.83;100.00
45403;BME280;47427;51.976;5.326;2023-02-28T00:44:42;103124.13;;;0.92;100.00
45403;BME280;47427;51.976;5.326;2023-02-28T00:48:13;103106.94;;;0.93;100.00
45403;BME280;47427;51.976;5.326;2023-02-28T00:51:49;103112.13;;;1.01;100.00
45403;BME280;47427;51.976;5.326;2023-02-28T00:55:18;103114.88;;;1.12;100.00
45403;BME280;47427;51.976;5.326;2023-02-28T00:58:51;103106.97;;;1.19;100.00
45403;BME280;47427;51.976;5.326;2023-02-28T01:02:16;103113.84;;;1.27;100.00
45403;BME280;47427;51.976;5.326;2023-02-28T01:05:46;103113.38;;;1.40;100.00
45403;BME280;47427;51.976;5.326;2023-02-28T01:09:15;103114.75;;;1.45;100.00
45403;BME280;47427;51.976;5.326;2023-02-28T01:12:49;103128.59;;;1.54;100.00
45403;BME280;47427;51.976;5.326;2023-02-28T01:16:19;103124.34;;;1.55;100.00
45403;BME280;47427;51.976;5.326;2023-02-28T01:19:43;103118.84;;;1.51;100.00
45403;BME280;47427;51.976;5.326;2023-02-28T01:23:38;103116.09;;;1.59;100.00
45403;BME280;47427;51.976;5.326;2023-02-28T01:27:02;103107.00;;;1.62;100.00
45403;BME280;47427;51.976;5.326;2023-02-28T01:30:42;103116.25;;;1.69;100.00
45403;BME280;47427;51.976;5.326;2023-02-28T01:34:11;103110.00;;;1.76;100.00
45403;BME280;47427;51.976;5.326;2023-02-28T01:38:00;103109.84;;;1.74;100.00
45403;BME280;47427;51.976;5.326;2023-02-28T01:42:20;103095.69;;;1.79;100.00
45403;BME280;47427;51.976;5.326;2023-02-28T01:45:44;103095.97;;;1.82;100.00
45403;BME280;47427;51.976;5.326;2023-02-28T01:49:13;103102.22;;;1.84;100.00
45403;BME280;47427;51.976;5.326;2023-02-28T01:52:36;103104.03;;;1.94;100.00
45403;BME280;47427;51.976;5.326;2023-02-28T01:55:58;103087.75;;;1.95;100.00
45403;BME280;47427;51.976;5.326;2023-02-28T01:59:43;103103.09;;;2.02;100.00
45403;BME280;47427;51.976;5.326;2023-02-28T02:03:25;103102.19;;;2.02;100.00
45403;BME280;47427;51.976;5.326;2023-02-28T02:06:53;103099.16;;;2.06;100.00
45403;BME280;47427;51.976;5.326;2023-02-28T02:10:35;103095.94;;;2.08;100.00
45403;BME280;47427;51.976;5.326;2023-02-28T02:25:56;103083.50;;;2.32;100.00
45403;BME280;47427;51.976;5.326;2023-02-28T02:37:51;103091.56;;;2.35;99.75
45403;BME280;47427;51.976;5.326;2023-02-28T02:41:54;103082.72;;;2.33;99.57
45403;BME280;47427;51.976;5.326;2023-02-28T02:45:59;103094.59;;;2.39;99.76
45403;BME280;47427;51.976;5.326;2023-02-28T02:49:36;103100.84;;;2.42;99.58
45403;BME280;47427;51.976;5.326;2023-02-28T02:53:02;103094.13;;;2.44;99.41
45403;BME280;47427;51.976;5.326;2023-02-28T02:56:36;103107.53;;;2.48;99.13
45403;BME280;47427;51.976;5.326;2023-02-28T03:00:06;103107.84;;;2.43;98.87
45403;BME280;47427;51.976;5.326;2023-02-28T03:03:39;103095.06;;;2.35;98.86
45403;BME280;47427;51.976;5.326;2023-02-28T03:07:01;103095.22;;;2.37;99.17
45403;BME280;47427;51.976;5.326;2023-02-28T03:10:39;103100.41;;;2.37;98.93
45403;BME280;47427;51.976;5.326;2023-02-28T03:18:10;103104.22;;;2.32;98.59
45403;BME280;47427;51.976;5.326;2023-02-28T03:26:02;103102.88;;;2.27;99.10
45403;BME280;47427;51.976;5.326;2023-02-28T03:29:43;103104.38;;;2.33;99.72
45403;BME280;47427;51.976;5.326;2023-02-28T03:33:26;103105.00;;;2.31;99.04
45403;BME280;47427;51.976;5.326;2023-02-28T03:37:06;103106.53;;;2.29;99.70
45403;BME280;47427;51.976;5.326;2023-02-28T03:40:33;103110.47;;;2.34;99.56
45403;BME280;47427;51.976;5.326;2023-02-28T03:44:29;103103.44;;;2.33;99.97
45403;BME280;47427;51.976;5.326;2023-02-28T03:48:15;103104.69;;;2.36;100.00
45403;BME280;47427;51.976;5.326;2023-02-28T03:51:41;103108.16;;;2.37;100.00
45403;BME280;47427;51.976;5.326;2023-02-28T03:55:19;103110.44;;;2.43;99.60
45403;BME280;47427;51.976;5.326;2023-02-28T03:58:55;103105.13;;;2.41;100.00
45403;BME280;47427;51.976;5.326;2023-02-28T04:02:22;103115.47;;;2.41;100.00
45403;BME280;47427;51.976;5.326;2023-02-28T04:06:20;103106.50;;;2.37;99.98
45403;BME280;47427;51.976;5.326;2023-02-28T04:09:57;103111.66;;;2.37;99.37
45403;BME280;47427;51.976;5.326;2023-02-28T04:13:42;103112.91;;;2.32;99.34
45403;BME280;47427;51.976;5.326;2023-02-28T04:21:07;103116.78;;;2.19;97.51
45403;BME280;47427;51.976;5.326;2023-02-28T04:24:31;103119.50;;;2.20;97.29
45403;BME280;47427;51.976;5.326;2023-02-28T04:27:55;103116.63;;;2.17;95.27
45403;BME280;47427;51.976;5.326;2023-02-28T04:31:17;103115.88;;;2.18;95.35
45403;BME280;47427;51.976;5.326;2023-02-28T04:34:46;103128.03;;;2.19;95.19
45403;BME280;47427;51.976;5.326;2023-02-28T04:38:13;103130.78;;;2.21;95.35
45403;BME280;47427;51.976;5.326;2023-02-28T04:41:37;103136.59;;;2.18;94.59
45403;BME280;47427;51.976;5.326;2023-02-28T04:45:15;103132.19;;;2.08;93.46
45403;BME280;47427;51.976;5.326;2023-02-28T04:48:50;103126.72;;;2.05;93.80
45403;BME280;47427;51.976;5.326;2023-02-28T04:52:18;103132.81;;;2.06;93.48
45403;BME280;47427;51.976;5.326;2023-02-28T04:55:41;103136.16;;;1.96;93.29
45403;BME280;47427;51.976;5.326;2023-02-28T04:59:10;103136.78;;;1.93;94.31
45403;BME280;47427;51.976;5.326;2023-02-28T05:02:57;103140.16;;;1.92;94.57
45403;BME280;47427;51.976;5.326;2023-02-28T05:06:26;103124.91;;;1.95;94.58
45403;BME280;47427;51.976;5.326;2023-02-28T05:10:08;103138.59;;;1.94;94.22
45403;BME280;47427;51.976;5.326;2023-02-28T05:13:30;103129.63;;;1.91;95.03
45403;BME280;47427;51.976;5.326;2023-02-28T05:16:59;103135.56;;;1.90;94.88
45403;BME280;47427;51.976;5.326;2023-02-28T05:20:32;103139.53;;;1.86;95.22
45403;BME280;47427;51.976;5.326;2023-02-28T05:24:00;103140.44;;;1.95;95.48
45403;BME280;47427;51.976;5.326;2023-02-28T05:27:25;103121.09;;;1.92;96.13
45403;BME280;47427;51.976;5.326;2023-02-28T05:30:53;103119.25;;;2.00;96.14
45403;BME280;47427;51.976;5.326;2023-02-28T05:34:28;103132.50;;;2.03;96.45
45403;BME280;47427;51.976;5.326;2023-02-28T05:37:54;103116.38;;;1.97;96.51
45403;BME280;47427;51.976;5.326;2023-02-28T05:41:21;103128.25;;;2.03;96.53
45403;BME280;47427;51.976;5.326;2023-02-28T05:44:45;103116.38;;;2.05;96.87
45403;BME280;47427;51.976;5.326;2023-02-28T05:48:10;103115.44;;;2.05;96.59
45403;BME280;47427;51.976;5.326;2023-02-28T05:51:32;103109.97;;;2.02;96.67
45403;BME280;47427;51.976;5.326;2023-02-28T05:54:58;103111.94;;;2.04;96.38
45403;BME280;47427;51.976;5.326;2023-02-28T05:58:28;103124.75;;;2.03;96.43
45403;BME280;47427;51.976;5.326;2023-02-28T06:01:53;103120.81;;;1.98;96.34
45403;BME280;47427;51.976;5.326;2023-02-28T06:05:17;103113.03;;;1.98;96.00
45403;BME280;47427;51.976;5.326;2023-02-28T06:08:54;103127.03;;;1.91;96.27
45403;BME280;47427;51.976;5.326;2023-02-28T06:12:20;103122.94;;;1.84;96.59
45403;BME280;47427;51.976;5.326;2023-02-28T06:15:49;103122.03;;;1.84;96.56
45403;BME280;47427;51.976;5.326;2023-02-28T06:19:30;103112.28;;;1.81;96.31
45403;BME280;47427;51.976;5.326;2023-02-28T06:23:01;103106.94;;;1.80;96.81
45403;BME280;47427;51.976;5.326;2023-02-28T06:26:45;103108.31;;;1.85;97.16
45403;BME280;47427;51.976;5.326;2023-02-28T06:30:17;103113.03;;;1.89;96.86
45403;BME280;47427;51.976;5.326;2023-02-28T06:34:00;103121.41;;;1.86;97.14
45403;BME280;47427;51.976;5.326;2023-02-28T06:37:46;103129.19;;;1.86;96.96
45403;BME280;47427;51.976;5.326;2023-02-28T06:41:16;103128.28;;;1.86;97.33
45403;BME280;47427;51.976;5.326;2023-02-28T06:44:57;103123.38;;;1.89;97.46
45403;BME280;47427;51.976;5.326;2023-02-28T06:48:29;103114.56;;;1.87;97.71
45403;BME280;47427;51.976;5.326;2023-02-28T06:52:10;103125.38;;;1.91;97.68
45403;BME280;47427;51.976;5.326;2023-02-28T06:55:37;103135.72;;;2.00;98.08
45403;BME280;47427;51.976;5.326;2023-02-28T06:59:16;103129.75;;;2.01;98.07
45403;BME280;47427;51.976;5.326;2023-02-28T07:02:49;103124.13;;;2.05;98.10
45403;BME280;47427;51.976;5.326;2023-02-28T07:06:21;103132.03;;;2.07;98.32
45403;BME280;47427;51.976;5.326;2023-02-28T07:09:53;103143.28;;;2.16;98.30
45403;BME280;47427;51.976;5.326;2023-02-28T07:13:25;103139.47;;;2.21;98.25
45403;BME280;47427;51.976;5.326;2023-02-28T07:16:52;103152.09;;;2.27;98.06
45403;BME280;47427;51.976;5.326;2023-02-28T07:20:13;103150.91;;;2.23;97.58
45403;BME280;47427;51.976;5.326;2023-02-28T07:23:44;103151.75;;;2.32;97.86
45403;BME280;47427;51.976;5.326;2023-02-28T07:27:06;103150.34;;;2.45;97.50
45403;BME280;47427;51.976;5.326;2023-02-28T07:30:33;103157.19;;;2.53;97.57
45403;BME280;47427;51.976;5.326;2023-02-28T07:34:06;103155.53;;;2.53;96.67
45403;BME280;47427;51.976;5.326;2023-02-28T07:37:33;103146.00;;;2.71;96.32
45403;BME280;47427;51.976;5.326;2023-02-28T07:40:57;103153.38;;;2.86;95.72
45403;BME280;47427;51.976;5.326;2023-02-28T07:44:19;103164.47;;;2.93;95.21
45403;BME280;47427;51.976;5.326;2023-02-28T07:47:42;103161.31;;;3.15;94.77
45403;BME280;47427;51.976;5.326;2023-02-28T07:51:05;103167.50;;;3.25;93.71
45403;BME280;47427;51.976;5.326;2023-02-28T07:54:30;103173.66;;;3.36;92.20
45403;BME280;47427;51.976;5.326;2023-02-28T07:57:51;103168.59;;;3.19;92.11
45403;BME280;47427;51.976;5.326;2023-02-28T08:01:16;103170.16;;;3.17;92.36
45403;BME280;47427;51.976;5.326;2023-02-28T08:04:46;103174.81;;;3.30;92.92
45403;BME280;47427;51.976;5.326;2023-02-28T08:08:09;103174.25;;;3.42;92.28
45403;BME280;47427;51.976;5.326;2023-02-28T08:11:45;103175.94;;;3.42;90.46
45403;BME280;47427;51.976;5.326;2023-02-28T08:15:10;103188.56;;;3.47;89.51
45403;BME280;47427;51.976;5.326;2023-02-28T08:18:35;103179.59;;;3.63;88.50
45403;BME280;47427;51.976;5.326;2023-02-28T08:22:10;103175.38;;;3.74;86.36
45403;BME280;47427;51.976;5.326;2023-02-28T08:25:33;103183.22;;;3.84;81.61
45403;BME280;47427;51.976;5.326;2023-02-28T08:28:55;103174.16;;;3.89;79.93
45403;BME280;47427;51.976;5.326;2023-02-28T08:32:41;103176.75;;;4.08;81.28
45403;BME280;47427;51.976;5.326;2023-02-28T08:36:26;103177.97;;;3.93;78.93
45403;BME280;47427;51.976;5.326;2023-02-28T08:39:49;103178.88;;;3.93;79.87
45403;BME280;47427;51.976;5.326;2023-02-28T08:43:11;103174.16;;;4.08;78.88
45403;BME280;47427;51.976;5.326;2023-02-28T08:46:39;103173.78;;;4.13;76.33
45403;BME280;47427;51.976;5.326;2023-02-28T08:50:04;103168.91;;;3.98;71.39
45403;BME280;47427;51.976;5.326;2023-02-28T08:53:41;103183.44;;;4.54;69.43
45403;BME280;47427;51.976;5.326;2023-02-28T08:57:12;103176.25;;;5.73;65.15
45403;BME280;47427;51.976;5.326;2023-02-28T09:00:35;103173.03;;;7.28;59.68
45403;BME280;47427;51.976;5.326;2023-02-28T09:03:58;103156.72;;;12.46;47.42
45403;BME280;47427;51.976;5.326;2023-02-28T09:07:25;103146.50;;;11.31;42.05
45403;BME280;47427;51.976;5.326;2023-02-28T09:10:47;103163.59;;;9.21;44.66
45403;BME280;47427;51.976;5.326;2023-02-28T09:14:18;103168.94;;;7.31;45.47
45403;BME280;47427;51.976;5.326;2023-02-28T09:17:49;103176.16;;;6.68;45.66
45403;BME280;47427;51.976;5.326;2023-02-28T09:21:15;103174.94;;;6.53;46.57
45403;BME280;47427;51.976;5.326;2023-02-28T09:24:37;103172.78;;;6.69;45.66
45403;BME280;47427;51.976;5.326;2023-02-28T09:28:04;103172.06;;;6.82;45.57
45403;BME280;47427;51.976;5.326;2023-02-28T09:31:27;103178.34;;;7.75;45.50
45403;BME280;47427;51.976;5.326;2023-02-28T09:35:02;103176.97;;;7.68;44.75
45403;BME280;47427;51.976;5.326;2023-02-28T09:38:35;103176.84;;;7.67;45.77
45403;BME280;47427;51.976;5.326;2023-02-28T09:41:59;103173.34;;;7.21;43.67
45403;BME280;47427;51.976;5.326;2023-02-28T09:45:33;103176.75;;;7.20;44.04
45403;BME280;47427;51.976;5.326;2023-02-28T09:49:05;103169.06;;;8.99;42.30
45403;BME280;47427;51.976;5.326;2023-02-28T09:52:34;103159.75;;;11.32;37.00
45403;BME280;47427;51.976;5.326;2023-02-28T09:56:06;103172.78;;;10.06;38.74
45403;BME280;47427;51.976;5.326;2023-02-28T10:03:34;103164.03;;;17.11;28.52
45403;BME280;47427;51.976;5.326;2023-02-28T10:11:35;103160.44;;;18.99;25.16
45403;BME280;47427;51.976;5.326;2023-02-28T10:15:05;103151.03;;;19.43;23.80
45403;BME280;47427;51.976;5.326;2023-02-28T10:18:49;103144.41;;;19.27;22.47
45403;BME280;47427;51.976;5.326;2023-02-28T10:22:23;103144.94;;;19.16;22.70
45403;BME280;47427;51.976;5.326;2023-02-28T10:26:03;103145.22;;;19.93;21.17
45403;BME280;47427;51.976;5.326;2023-02-28T10:29:33;103141.16;;;20.50;21.52
45403;BME280;47427;51.976;5.326;2023-02-28T10:33:08;103134.38;;;21.08;22.43
45403;BME280;47427;51.976;5.326;2023-02-28T10:36:36;103135.81;;;20.89;20.26
45403;BME280;47427;51.976;5.326;2023-02-28T10:40:04;103137.91;;;21.06;21.32
45403;BME280;47427;51.976;5.326;2023-02-28T10:43:35;103146.44;;;21.85;20.61
45403;BME280;47427;51.976;5.326;2023-02-28T10:47:13;103146.47;;;21.86;20.43
45403;BME280;47427;51.976;5.326;2023-02-28T10:50:52;103131.47;;;21.41;18.66
45403;BME280;47427;51.976;5.326;2023-02-28T10:54:30;103138.50;;;20.91;20.10
45403;BME280;47427;51.976;5.326;2023-02-28T10:57:53;103137.97;;;22.12;18.48
45403;BME280;47427;51.976;5.326;2023-02-28T11:01:42;103131.81;;;21.61;18.80
45403;BME280;47427;51.976;5.326;2023-02-28T11:05:36;103120.09;;;22.72;18.38
45403;BME280;47427;51.976;5.326;2023-02-28T11:09:12;103129.22;;;22.22;18.71
45403;BME280;47427;51.976;5.326;2023-02-28T11:12:56;103115.94;;;21.71;18.56
45403;BME280;47427;51.976;5.326;2023-02-28T11:16:18;103114.16;;;21.19;18.31
45403;BME280;47427;51.976;5.326;2023-02-28T11:20:10;103110.81;;;21.33;18.60
45403;BME280;47427;51.976;5.326;2023-02-28T11:24:28;103107.84;;;22.94;17.81
45403;BME280;47427;51.976;5.326;2023-02-28T11:27:59;103108.59;;;22.14;18.18
45403;BME280;47427;51.976;5.326;2023-02-28T11:31:33;103104.13;;;21.55;18.28
45403;BME280;47427;51.976;5.326;2023-02-28T11:38:36;103099.81;;;18.57;19.68
45403;BME280;47427;51.976;5.326;2023-02-28T11:50:29;103085.81;;;21.28;19.39
45403;BME280;47427;51.976;5.326;2023-02-28T11:54:35;103093.44;;;22.14;18.35
45403;BME280;47427;51.976;5.326;2023-02-28T12:02:24;103084.34;;;22.01;18.06
45403;BME280;47427;51.976;5.326;2023-02-28T12:10:29;103067.41;;;22.69;18.28
45403;BME280;47427;51.976;5.326;2023-02-28T12:14:46;103075.72;;;22.94;18.03
45403;BME280;47427;51.976;5.326;2023-02-28T12:26:32;103054.25;;;22.89;17.40
45403;BME280;47427;51.976;5.326;2023-02-28T12:33:43;103049.41;;;22.55;17.27
45403;BME280;47427;51.976;5.326;2023-02-28T12:37:25;103047.06;;;22.85;17.52
45403;BME280;47427;51.976;5.326;2023-02-28T12:45:27;103034.28;;;22.58;17.09
45403;BME280;47427;51.976;5.326;2023-02-28T12:49:26;103039.91;;;22.83;17.96
45403;BME280;47427;51.976;5.326;2023-02-28T12:53:11;103040.50;;;23.46;17.46
45403;BME280;47427;51.976;5.326;2023-02-28T12:57:08;103022.59;;;23.42;17.18
45403;BME280;47427;51.976;5.326;2023-02-28T13:01:30;103029.63;;;23.26;16.42
45403;BME280;47427;51.976;5.326;2023-02-28T13:12:17;103019.75;;;22.35;17.54
45403;BME280;47427;51.976;5.326;2023-02-28T13:15:40;103017.63;;;22.87;16.83
45403;BME280;47427;51.976;5.326;2023-02-28T13:19:20;103003.72;;;22.38;18.10
45403;BME280;47427;51.976;5.326;2023-02-28T13:27:38;103012.63;;;21.71;17.64
45403;BME280;47427;51.976;5.326;2023-02-28T13:31:05;102999.81;;;21.49;16.92
45403;BME280;47427;51.976;5.326;2023-02-28T13:34:39;102997.97;;;20.46;17.90
45403;BME280;47427;51.976;5.326;2023-02-28T13:38:21;102996.28;;;20.98;17.77
45403;BME280;47427;51.976;5.326;2023-02-28T13:41:45;102994.25;;;21.36;17.74
45403;BME280;47427;51.976;5.326;2023-02-28T13:48:29;102984.41;;;21.92;17.50
45403;BME280;47427;51.976;5.326;2023-02-28T13:51:53;102978.75;;;22.37;16.95
45403;BME280;47427;51.976;5.326;2023-02-28T13:59:22;102979.16;;;21.98;17.27
45403;BME280;47427;51.976;5.326;2023-02-28T14:03:22;102974.44;;;21.80;17.65
45403;BME280;47427;51.976;5.326;2023-02-28T14:06:50;102962.03;;;21.85;17.75
45403;BME280;47427;51.976;5.326;2023-02-28T14:10:32;102968.13;;;21.73;18.16
45403;BME280;47427;51.976;5.326;2023-02-28T14:13:59;102951.50;;;21.96;17.41
45403;BME280;47427;51.976;5.326;2023-02-28T14:17:24;102967.28;;;21.18;18.03
45403;BME280;47427;51.976;5.326;2023-02-28T14:21:03;102954.31;;;21.41;18.23
45403;BME280;47427;51.976;5.326;2023-02-28T14:36:55;102956.66;;;20.24;19.17
45403;BME280;47427;51.976;5.326;2023-02-28T14:40:33;102955.25;;;20.43;18.66
45403;BME280;47427;51.976;5.326;2023-02-28T14:44:22;102957.66;;;20.29;18.89
45403;BME280;47427;51.976;5.326;2023-02-28T14:47:51;102960.16;;;19.79;18.74
45403;BME280;47427;51.976;5.326;2023-02-28T14:51:20;102950.69;;;19.54;19.33
45403;BME280;47427;51.976;5.326;2023-02-28T14:54:56;102952.16;;;19.41;19.21
45403;BME280;47427;51.976;5.326;2023-02-28T14:58:33;102951.38;;;19.07;19.61
45403;BME280;47427;51.976;5.326;2023-02-28T15:02:33;102951.72;;;18.86;19.76
45403;BME280;47427;51.976;5.326;2023-02-28T15:06:16;102955.00;;;19.11;19.80
45403;BME280;47427;51.976;5.326;2023-02-28T15:13:50;102950.59;;;18.45;20.56
45403;BME280;47427;51.976;5.326;2023-02-28T15:17:21;102944.50;;;18.17;20.48
45403;BME280;47427;51.976;5.326;2023-02-28T15:20:49;102949.38;;;16.64;21.92
45403;BME280;47427;51.976;5.326;2023-02-28T15:24:48;102966.13;;;15.25;22.61
45403;BME280;47427;51.976;5.326;2023-02-28T15:28:21;102959.56;;;15.15;23.27
45403;BME280;47427;51.976;5.326;2023-02-28T15:31:55;102955.50;;;14.41;24.05
45403;BME280;47427;51.976;5.326;2023-02-28T15:39:26;102972.56;;;13.54;25.43
45403;BME280;47427;51.976;5.326;2023-02-28T15:43:13;102970.19;;;12.21;26.61
45403;BME280;47427;51.976;5.326;2023-02-28T15:46:55;102971.84;;;12.03;26.93
45403;BME280;47427;51.976;5.326;2023-02-28T15:50:23;102961.56;;;11.60;27.82
45403;BME280;47427;51.976;5.326;2023-02-28T15:54:00;102955.25;;;10.95;28.97
45403;BME280;47427;51.976;5.326;2023-02-28T15:57:27;102953.78;;;10.41;29.96
45403;BME280;47427;51.976;5.326;2023-02-28T16:01:27;102955.72;;;10.30;30.35
45403;BME280;47427;51.976;5.326;2023-02-28T16:05:47;102949.25;;;10.68;30.53
45403;BME280;47427;51.976;5.326;2023-02-28T16:09:34;102947.84;;;10.58;30.37
45403;BME280;47427;51.976;5.326;2023-02-28T16:13:08;102949.03;;;10.35;31.29
45403;BME280;47427;51.976;5.326;2023-02-28T16:16:46;102947.47;;;10.24;30.97
45403;BME280;47427;51.976;5.326;2023-02-28T16:20:28;102958.50;;;9.77;31.78
45403;BME280;47427;51.976;5.326;2023-02-28T16:23:55;102958.97;;;9.70;32.48
45403;BME280;47427;51.976;5.326;2023-02-28T16:27:50;102963.22;;;9.54;33.06
45403;BME280;47427;51.976;5.326;2023-02-28T16:31:23;102968.97;;;9.22;33.69
45403;BME280;47427;51.976;5.326;2023-02-28T16:34:48;102958.38;;;8.94;33.71
45403;BME280;47427;51.976;5.326;2023-02-28T16:38:18;102968.63;;;8.39;34.21
45403;BME280;47427;51.976;5.326;2023-02-28T16:41:50;102975.50;;;7.89;35.33
45403;BME280;47427;51.976;5.326;2023-02-28T16:45:28;102965.13;;;7.53;36.46
45403;BME280;47427;51.976;5.326;2023-02-28T16:48:50;102975.25;;;7.25;36.39
45403;BME280;47427;51.976;5.326;2023-02-28T16:52:34;102971.16;;;7.05;36.72
45403;BME280;47427;51.976;5.326;2023-02-28T16:56:03;102973.41;;;6.77;37.55
45403;BME280;47427;51.976;5.326;2023-02-28T16:59:27;102981.78;;;6.61;37.42
45403;BME280;47427;51.976;5.326;2023-02-28T17:02:51;102982.84;;;6.41;38.14
45403;BME280;47427;51.976;5.326;2023-02-28T17:06:47;102997.75;;;6.32;39.15
45403;BME280;47427;51.976;5.326;2023-02-28T17:10:23;102996.09;;;6.11;38.77
45403;BME280;47427;51.976;5.326;2023-02-28T17:13:50;102991.06;;;5.92;40.46
45403;BME280;47427;51.976;5.326;2023-02-28T17:17:33;103008.75;;;5.74;40.37
45403;BME280;47427;51.976;5.326;2023-02-28T17:21:14;103011.94;;;5.59;40.30
45403;BME280;47427;51.976;5.326;2023-02-28T17:24:50;103004.81;;;5.47;41.15
45403;BME280;47427;51.976;5.326;2023-02-28T17:28:17;103013.03;;;5.41;41.64
45403;BME280;47427;51.976;5.326;2023-02-28T17:31:44;103017.91;;;5.26;42.18
45403;BME280;47427;51.976;5.326;2023-02-28T17:35:15;103023.00;;;5.14;42.11
45403;BME280;47427;51.976;5.326;2023-02-28T17:39:00;103030.31;;;4.98;42.62
45403;BME280;47427;51.976;5.326;2023-02-28T17:42:28;103029.66;;;4.90;43.75
45403;BME280;47427;51.976;5.326;2023-02-28T17:45:51;103032.16;;;4.78;44.56
45403;BME280;47427;51.976;5.326;2023-02-28T17:49:16;103043.47;;;4.69;44.85
45403;BME280;47427;51.976;5.326;2023-02-28T17:52:47;103043.19;;;4.66;45.60
45403;BME280;47427;51.976;5.326;2023-02-28T17:59:43;103044.47;;;4.50;45.97
45403;BME280;47427;51.976;5.326;2023-02-28T18:03:08;103042.88;;;4.32;46.07
45403;BME280;47427;51.976;5.326;2023-02-28T18:06:38;103060.56;;;4.26;46.91
45403;BME280;47427;51.976;5.326;2023-02-28T18:10:19;103056.72;;;4.12;47.06
45403;BME280;47427;51.976;5.326;2023-02-28T18:13:57;103061.41;;;4.06;47.83
45403;BME280;47427;51.976;5.326;2023-02-28T18:17:32;103062.00;;;3.93;47.82
45403;BME280;47427;51.976;5.326;2023-02-28T18:21:04;103063.50;;;3.81;47.80
45403;BME280;47427;51.976;5.326;2023-02-28T18:24:29;103056.59;;;3.71;48.63
45403;BME280;47427;51.976;5.326;2023-02-28T18:27:52;103061.34;;;3.66;47.63
45403;BME280;47427;51.976;5.326;2023-02-28T18:31:19;103061.09;;;3.63;48.28
45403;BME280;47427;51.976;5.326;2023-02-28T18:35:04;103053.66;;;3.58;48.89
45403;BME280;47427;51.976;5.326;2023-02-28T18:38:38;103056.63;;;3.52;48.69
45403;BME280;47427;51.976;5.326;2023-02-28T18:42:13;103051.44;;;3.33;49.16
45403;BME280;47427;51.976;5.326;2023-02-28T18:45:44;103060.22;;;3.25;49.57
45403;BME280;47427;51.976;5.326;2023-02-28T18:49:12;103065.88;;;3.21;50.24
45403;BME280;47427;51.976;5.326;2023-02-28T18:52:35;103057.50;;;3.04;50.44
45403;BME280;47427;51.976;5.326;2023-02-28T18:56:01;103075.91;;;2.89;50.97
45403;BME280;47427;51.976;5.326;2023-02-28T18:59:36;103082.53;;;2.76;51.56
45403;BME280;47427;51.976;5.326;2023-02-28T19:03:05;103074.06;;;2.60;51.89
45403;BME280;47427;51.976;5.326;2023-02-28T19:06:34;103080.84;;;2.49;52.36
45403;BME280;47427;51.976;5.326;2023-02-28T19:10:12;103092.28;;;2.43;52.95
45403;BME280;47427;51.976;5.326;2023-02-28T19:13:43;103083.94;;;2.36;53.38
45403;BME280;47427;51.976;5.326;2023-02-28T19:17:05;103088.53;;;2.30;53.57
45403;BME280;47427;51.976;5.326;2023-02-28T19:20:29;103083.69;;;2.25;53.98
45403;BME280;47427;51.976;5.326;2023-02-28T19:23:51;103085.53;;;2.17;54.33
45403;BME280;47427;51.976;5.326;2023-02-28T19:27:27;103085.88;;;2.11;55.02
45403;BME280;47427;51.976;5.326;2023-02-28T19:30:50;103084.69;;;2.08;55.02
45403;BME280;47427;51.976;5.326;2023-02-28T19:34:14;103093.34;;;2.00;54.55
45403;BME280;47427;51.976;5.326;2023-02-28T19:37:41;103092.31;;;1.89;55.67
45403;BME280;47427;51.976;5.326;2023-02-28T19:41:10;103088.81;;;1.80;55.59
45403;BME280;47427;51.976;5.326;2023-02-28T19:44:44;103095.38;;;1.76;55.60
45403;BME280;47427;51.976;5.326;2023-02-28T19:48:15;103094.19;;;1.64;56.30
45403;BME280;47427;51.976;5.326;2023-02-28T19:51:44;103097.56;;;1.63;57.21
45403;BME280;47427;51.976;5.326;2023-02-28T19:55:17;103099.69;;;1.58;57.67
45403;BME280;47427;51.976;5.326;2023-02-28T19:58:43;103091.94;;;1.49;57.77
45403;BME280;47427;51.976;5.326;2023-02-28T20:02:15;103093.44;;;1.47;58.42
45403;BME280;47427;51.976;5.326;2023-02-28T20:05:47;103103.34;;;1.43;58.74
45403;BME280;47427;51.976;5.326;2023-02-28T20:09:22;103105.63;;;1.40;58.98
45403;BME280;47427;51.976;5.326;2023-02-28T20:12:43;103107.28;;;1.30;59.54
45403;BME280;47427;51.976;5.326;2023-02-28T20:16:19;103113.38;;;1.22;59.76
45403;BME280;47427;51.976;5.326;2023-02-28T20:19:44;103108.34;;;1.15;60.50
45403;BME280;47427;51.976;5.326;2023-02-28T20:23:14;103116.69;;;1.13;60.69
45403;BME280;47427;51.976;5.326;2023-02-28T20:26:35;103117.00;;;1.07;61.18
45403;BME280;47427;51.976;5.326;2023-02-28T20:30:10;103112.56;;;0.97;61.74
45403;BME280;47427;51.976;5.326;2023-02-28T20:33:38;103111.50;;;0.95;61.33
45403;BME280;47427;51.976;5.326;2023-02-28T20:37:17;103113.47;;;0.89;61.80
45403;BME280;47427;51.976;5.326;2023-02-28T20:40:38;103109.50;;;0.84;62.68
45403;BME280;47427;51.976;5.326;2023-02-28T20:44:01;103123.94;;;0.82;62.64